Terminal Aerodrome Forecast
Issued by NWS

Home | Current Version | Previous Version | Graphics & Text | Print | Product List | Glossary On
Versions: 1 2 3 4 5 6 7 8 9 10 11 12 13 14 15 16 17 18 19 20 21 22 23 24 25 26 27
000
FTUS45 KGGW 131200 AAA
TAFOLF
TAF AMD
KOLF 131249Z 1313/1412 VRB05KT P6SM BKN100
     FM131800 34016KT P6SM SKC
     FM132100 36020KT P6SM SKC
     FM140400 03005KT P6SM SKC=

USA.gov is the U.S. government's official web portal to all federal, state and local government web resources and services.